sensor_id;sensor_type;location;lat;lon;timestamp;P1;durP1;ratioP1;P2;durP2;ratioP2
53151;SDS011;39234;53.158;6.322;2023-03-03T00:02:27;439.33;;;28.83;;
53151;SDS011;39234;53.158;6.322;2023-03-03T00:04:53;108.13;;;18.23;;
53151;SDS011;39234;53.158;6.322;2023-03-03T00:07:19;151.82;;;18.13;;
53151;SDS011;39234;53.158;6.322;2023-03-03T00:09:47;178.23;;;19.30;;
53151;SDS011;39234;53.158;6.322;2023-03-03T00:12:23;402.27;;;27.20;;
53151;SDS011;39234;53.158;6.322;2023-03-03T00:14:51;198.80;;;20.20;;
53151;SDS011;39234;53.158;6.322;2023-03-03T00:17:21;284.52;;;24.10;;
53151;SDS011;39234;53.158;6.322;2023-03-03T00:19:49;384.23;;;26.17;;
53151;SDS011;39234;53.158;6.322;2023-03-03T00:22:36;95.80;;;14.27;;
53151;SDS011;39234;53.158;6.322;2023-03-03T00:27:53;316.67;;;23.40;;
53151;SDS011;39234;53.158;6.322;2023-03-03T00:30:22;268.58;;;20.10;;
53151;SDS011;39234;53.158;6.322;2023-03-03T00:32:49;148.55;;;16.58;;
53151;SDS011;39234;53.158;6.322;2023-03-03T00:37:54;240.60;;;18.85;;
53151;SDS011;39234;53.158;6.322;2023-03-03T00:45:45;331.10;;;21.27;;
53151;SDS011;39234;53.158;6.322;2023-03-03T00:48:31;251.15;;;17.52;;
53151;SDS011;39234;53.158;6.322;2023-03-03T00:51:28;256.30;;;17.77;;
53151;SDS011;39234;53.158;6.322;2023-03-03T00:53:53;320.83;;;20.10;;
53151;SDS011;39234;53.158;6.322;2023-03-03T00:56:19;255.93;;;18.40;;
53151;SDS011;39234;53.158;6.322;2023-03-03T00:58:45;287.65;;;19.63;;
53151;SDS011;39234;53.158;6.322;2023-03-03T01:01:12;255.27;;;18.50;;
53151;SDS011;39234;53.158;6.322;2023-03-03T01:03:39;199.75;;;16.33;;
53151;SDS011;39234;53.158;6.322;2023-03-03T01:06:05;200.50;;;16.13;;
53151;SDS011;39234;53.158;6.322;2023-03-03T01:08:31;240.27;;;16.33;;
53151;SDS011;39234;53.158;6.322;2023-03-03T01:10:58;108.03;;;12.02;;
53151;SDS011;39234;53.158;6.322;2023-03-03T01:13:26;130.70;;;12.45;;
53151;SDS011;39234;53.158;6.322;2023-03-03T01:15:53;356.80;;;19.65;;
53151;SDS011;39234;53.158;6.322;2023-03-03T01:18:19;422.17;;;22.00;;
53151;SDS011;39234;53.158;6.322;2023-03-03T01:20:45;259.55;;;16.13;;
53151;SDS011;39234;53.158;6.322;2023-03-03T01:23:11;237.55;;;16.42;;
53151;SDS011;39234;53.158;6.322;2023-03-03T01:25:37;257.67;;;16.30;;
53151;SDS011;39234;53.158;6.322;2023-03-03T01:28:04;185.60;;;14.02;;
53151;SDS011;39234;53.158;6.322;2023-03-03T01:30:30;139.48;;;14.00;;
53151;SDS011;39234;53.158;6.322;2023-03-03T01:32:57;254.27;;;16.23;;
53151;SDS011;39234;53.158;6.322;2023-03-03T01:35:23;256.08;;;16.52;;
53151;SDS011;39234;53.158;6.322;2023-03-03T01:37:49;104.70;;;11.95;;
53151;SDS011;39234;53.158;6.322;2023-03-03T01:40:20;183.65;;;15.95;;
53151;SDS011;39234;53.158;6.322;2023-03-03T01:42:48;127.10;;;13.23;;
53151;SDS011;39234;53.158;6.322;2023-03-03T01:45:24;156.10;;;14.65;;
53151;SDS011;39234;53.158;6.322;2023-03-03T01:53:03;77.20;;;11.35;;
53151;SDS011;39234;53.158;6.322;2023-03-03T01:55:32;105.05;;;13.32;;
53151;SDS011;39234;53.158;6.322;2023-03-03T01:58:00;84.43;;;12.63;;
53151;SDS011;39234;53.158;6.322;2023-03-03T02:00:27;179.13;;;14.27;;
53151;SDS011;39234;53.158;6.322;2023-03-03T02:02:54;123.85;;;12.88;;
53151;SDS011;39234;53.158;6.322;2023-03-03T02:05:20;108.38;;;11.15;;
53151;SDS011;39234;53.158;6.322;2023-03-03T02:07:47;193.63;;;15.27;;
53151;SDS011;39234;53.158;6.322;2023-03-03T02:10:14;143.23;;;12.52;;
53151;SDS011;39234;53.158;6.322;2023-03-03T02:15:14;163.60;;;13.45;;
53151;SDS011;39234;53.158;6.322;2023-03-03T02:17:40;302.42;;;20.85;;
53151;SDS011;39234;53.158;6.322;2023-03-03T02:20:11;250.77;;;16.05;;
53151;SDS011;39234;53.158;6.322;2023-03-03T02:28:04;286.15;;;19.10;;
53151;SDS011;39234;53.158;6.322;2023-03-03T02:30:30;298.58;;;19.05;;
53151;SDS011;39234;53.158;6.322;2023-03-03T02:33:01;213.23;;;15.75;;
53151;SDS011;39234;53.158;6.322;2023-03-03T02:35:32;269.10;;;18.58;;
53151;SDS011;39234;53.158;6.322;2023-03-03T02:38:01;166.65;;;15.57;;
53151;SDS011;39234;53.158;6.322;2023-03-03T02:40:30;181.77;;;15.45;;
53151;SDS011;39234;53.158;6.322;2023-03-03T02:42:58;132.07;;;14.77;;
53151;SDS011;39234;53.158;6.322;2023-03-03T02:45:26;170.25;;;14.18;;
53151;SDS011;39234;53.158;6.322;2023-03-03T02:47:52;141.07;;;14.13;;
53151;SDS011;39234;53.158;6.322;2023-03-03T02:50:18;192.27;;;15.50;;
53151;SDS011;39234;53.158;6.322;2023-03-03T02:52:44;164.82;;;13.43;;
53151;SDS011;39234;53.158;6.322;2023-03-03T02:55:11;121.15;;;13.27;;
53151;SDS011;39234;53.158;6.322;2023-03-03T02:57:37;64.38;;;10.98;;
53151;SDS011;39234;53.158;6.322;2023-03-03T03:00:03;83.10;;;13.25;;
53151;SDS011;39234;53.158;6.322;2023-03-03T03:02:30;75.97;;;12.57;;
53151;SDS011;39234;53.158;6.322;2023-03-03T03:04:56;86.50;;;12.02;;
53151;SDS011;39234;53.158;6.322;2023-03-03T03:07:22;50.42;;;11.50;;
53151;SDS011;39234;53.158;6.322;2023-03-03T03:09:48;38.03;;;10.85;;
53151;SDS011;39234;53.158;6.322;2023-03-03T03:12:14;51.28;;;12.85;;
53151;SDS011;39234;53.158;6.322;2023-03-03T03:14:43;26.77;;;11.45;;
53151;SDS011;39234;53.158;6.322;2023-03-03T03:17:09;46.88;;;13.27;;
53151;SDS011;39234;53.158;6.322;2023-03-03T03:19:36;36.42;;;11.68;;
53151;SDS011;39234;53.158;6.322;2023-03-03T03:22:02;27.98;;;11.80;;
53151;SDS011;39234;53.158;6.322;2023-03-03T03:24:29;32.20;;;12.10;;
53151;SDS011;39234;53.158;6.322;2023-03-03T03:26:55;25.48;;;11.90;;
53151;SDS011;39234;53.158;6.322;2023-03-03T03:29:21;19.08;;;11.18;;
53151;SDS011;39234;53.158;6.322;2023-03-03T03:31:47;21.27;;;11.40;;
53151;SDS011;39234;53.158;6.322;2023-03-03T03:34:13;19.48;;;10.88;;
53151;SDS011;39234;53.158;6.322;2023-03-03T03:36:39;18.40;;;10.63;;
53151;SDS011;39234;53.158;6.322;2023-03-03T03:39:07;19.35;;;10.40;;
53151;SDS011;39234;53.158;6.322;2023-03-03T03:41:33;16.88;;;10.38;;
53151;SDS011;39234;53.158;6.322;2023-03-03T03:43:59;14.73;;;9.27;;
53151;SDS011;39234;53.158;6.322;2023-03-03T03:46:25;16.50;;;9.48;;
53151;SDS011;39234;53.158;6.322;2023-03-03T03:48:51;15.77;;;9.77;;
53151;SDS011;39234;53.158;6.322;2023-03-03T03:51:17;16.13;;;9.48;;
53151;SDS011;39234;53.158;6.322;2023-03-03T03:53:44;14.40;;;9.75;;
53151;SDS011;39234;53.158;6.322;2023-03-03T03:56:10;16.50;;;9.77;;
53151;SDS011;39234;53.158;6.322;2023-03-03T03:58:36;13.05;;;8.93;;
53151;SDS011;39234;53.158;6.322;2023-03-03T04:01:03;14.48;;;9.18;;
53151;SDS011;39234;53.158;6.322;2023-03-03T04:03:29;13.48;;;8.45;;
53151;SDS011;39234;53.158;6.322;2023-03-03T04:05:55;13.90;;;8.93;;
53151;SDS011;39234;53.158;6.322;2023-03-03T04:08:21;11.50;;;8.07;;
53151;SDS011;39234;53.158;6.322;2023-03-03T04:10:47;14.15;;;9.20;;
53151;SDS011;39234;53.158;6.322;2023-03-03T04:13:13;13.43;;;8.80;;
53151;SDS011;39234;53.158;6.322;2023-03-03T04:15:40;13.77;;;9.10;;
53151;SDS011;39234;53.158;6.322;2023-03-03T04:18:06;14.90;;;9.70;;
53151;SDS011;39234;53.158;6.322;2023-03-03T04:20:32;18.95;;;11.32;;
53151;SDS011;39234;53.158;6.322;2023-03-03T04:22:58;16.77;;;10.45;;
53151;SDS011;39234;53.158;6.322;2023-03-03T04:25:24;14.38;;;9.75;;
53151;SDS011;39234;53.158;6.322;2023-03-03T04:27:51;17.10;;;10.40;;
53151;SDS011;39234;53.158;6.322;2023-03-03T04:30:18;15.70;;;10.45;;
53151;SDS011;39234;53.158;6.322;2023-03-03T04:32:44;14.55;;;9.80;;
53151;SDS011;39234;53.158;6.322;2023-03-03T04:35:11;15.18;;;9.27;;
53151;SDS011;39234;53.158;6.322;2023-03-03T04:37:37;14.45;;;9.95;;
53151;SDS011;39234;53.158;6.322;2023-03-03T04:40:04;13.75;;;9.35;;
53151;SDS011;39234;53.158;6.322;2023-03-03T04:42:31;13.18;;;9.65;;
53151;SDS011;39234;53.158;6.322;2023-03-03T04:44:57;14.05;;;9.35;;
53151;SDS011;39234;53.158;6.322;2023-03-03T04:47:23;13.15;;;9.20;;
53151;SDS011;39234;53.158;6.322;2023-03-03T04:49:49;15.60;;;9.85;;
53151;SDS011;39234;53.158;6.322;2023-03-03T04:52:15;14.68;;;8.85;;
53151;SDS011;39234;53.158;6.322;2023-03-03T04:54:42;14.27;;;9.65;;
53151;SDS011;39234;53.158;6.322;2023-03-03T04:57:08;14.50;;;9.55;;
53151;SDS011;39234;53.158;6.322;2023-03-03T04:59:34;13.45;;;8.95;;
53151;SDS011;39234;53.158;6.322;2023-03-03T05:02:00;12.93;;;8.80;;
53151;SDS011;39234;53.158;6.322;2023-03-03T05:04:28;13.88;;;8.63;;
53151;SDS011;39234;53.158;6.322;2023-03-03T05:06:54;12.40;;;8.65;;
53151;SDS011;39234;53.158;6.322;2023-03-03T05:09:21;13.65;;;9.48;;
53151;SDS011;39234;53.158;6.322;2023-03-03T05:11:47;14.25;;;9.20;;
53151;SDS011;39234;53.158;6.322;2023-03-03T05:14:13;14.10;;;9.38;;
53151;SDS011;39234;53.158;6.322;2023-03-03T05:16:39;13.80;;;9.52;;
53151;SDS011;39234;53.158;6.322;2023-03-03T05:19:06;14.38;;;9.52;;
53151;SDS011;39234;53.158;6.322;2023-03-03T05:21:32;15.35;;;9.45;;
53151;SDS011;39234;53.158;6.322;2023-03-03T05:23:58;13.85;;;9.02;;
53151;SDS011;39234;53.158;6.322;2023-03-03T05:26:24;14.13;;;9.40;;
53151;SDS011;39234;53.158;6.322;2023-03-03T05:28:50;16.10;;;9.25;;
53151;SDS011;39234;53.158;6.322;2023-03-03T05:31:16;15.18;;;8.77;;
53151;SDS011;39234;53.158;6.322;2023-03-03T05:33:42;18.00;;;9.13;;
53151;SDS011;39234;53.158;6.322;2023-03-03T05:36:08;15.48;;;9.63;;
53151;SDS011;39234;53.158;6.322;2023-03-03T05:38:34;16.23;;;9.55;;
53151;SDS011;39234;53.158;6.322;2023-03-03T05:41:01;19.75;;;10.00;;
53151;SDS011;39234;53.158;6.322;2023-03-03T05:43:27;13.05;;;8.52;;
53151;SDS011;39234;53.158;6.322;2023-03-03T05:45:54;11.95;;;8.35;;
53151;SDS011;39234;53.158;6.322;2023-03-03T05:48:20;13.20;;;8.98;;
53151;SDS011;39234;53.158;6.322;2023-03-03T05:50:46;12.52;;;8.60;;
53151;SDS011;39234;53.158;6.322;2023-03-03T05:53:12;14.68;;;9.10;;
53151;SDS011;39234;53.158;6.322;2023-03-03T05:55:39;16.77;;;8.95;;
53151;SDS011;39234;53.158;6.322;2023-03-03T05:58:05;14.45;;;9.07;;
53151;SDS011;39234;53.158;6.322;2023-03-03T06:00:31;15.85;;;9.27;;
53151;SDS011;39234;53.158;6.322;2023-03-03T06:02:57;12.93;;;8.25;;
53151;SDS011;39234;53.158;6.322;2023-03-03T06:05:23;13.15;;;8.73;;
53151;SDS011;39234;53.158;6.322;2023-03-03T06:07:49;14.70;;;8.00;;
53151;SDS011;39234;53.158;6.322;2023-03-03T06:10:15;13.50;;;8.45;;
53151;SDS011;39234;53.158;6.322;2023-03-03T06:12:41;13.18;;;8.25;;
53151;SDS011;39234;53.158;6.322;2023-03-03T06:15:08;12.98;;;8.30;;
53151;SDS011;39234;53.158;6.322;2023-03-03T06:17:34;12.10;;;8.35;;
53151;SDS011;39234;53.158;6.322;2023-03-03T06:20:00;11.40;;;7.28;;
53151;SDS011;39234;53.158;6.322;2023-03-03T06:22:28;13.60;;;8.30;;
53151;SDS011;39234;53.158;6.322;2023-03-03T06:24:54;18.50;;;8.50;;
53151;SDS011;39234;53.158;6.322;2023-03-03T06:27:20;12.75;;;7.75;;
53151;SDS011;39234;53.158;6.322;2023-03-03T06:29:46;11.73;;;8.30;;
53151;SDS011;39234;53.158;6.322;2023-03-03T06:32:12;13.65;;;8.50;;
53151;SDS011;39234;53.158;6.322;2023-03-03T06:34:39;11.45;;;7.75;;
53151;SDS011;39234;53.158;6.322;2023-03-03T06:37:05;17.50;;;9.90;;
53151;SDS011;39234;53.158;6.322;2023-03-03T06:39:31;15.63;;;9.77;;
53151;SDS011;39234;53.158;6.322;2023-03-03T06:41:57;13.95;;;9.55;;
53151;SDS011;39234;53.158;6.322;2023-03-03T06:44:23;14.57;;;9.73;;
53151;SDS011;39234;53.158;6.322;2023-03-03T06:46:49;14.00;;;9.15;;
53151;SDS011;39234;53.158;6.322;2023-03-03T06:49:16;13.40;;;8.95;;
53151;SDS011;39234;53.158;6.322;2023-03-03T06:51:42;14.18;;;8.95;;
53151;SDS011;39234;53.158;6.322;2023-03-03T06:54:13;15.00;;;9.40;;
53151;SDS011;39234;53.158;6.322;2023-03-03T06:56:40;14.25;;;9.43;;
53151;SDS011;39234;53.158;6.322;2023-03-03T06:59:14;13.93;;;9.13;;
53151;SDS011;39234;53.158;6.322;2023-03-03T07:01:40;14.65;;;9.20;;
53151;SDS011;39234;53.158;6.322;2023-03-03T07:04:27;13.90;;;8.90;;
53151;SDS011;39234;53.158;6.322;2023-03-03T07:06:57;13.93;;;9.00;;
53151;SDS011;39234;53.158;6.322;2023-03-03T07:09:24;13.85;;;9.18;;
53151;SDS011;39234;53.158;6.322;2023-03-03T07:11:51;11.98;;;8.30;;
53151;SDS011;39234;53.158;6.322;2023-03-03T07:14:18;12.05;;;8.25;;
53151;SDS011;39234;53.158;6.322;2023-03-03T07:16:44;11.00;;;7.80;;
53151;SDS011;39234;53.158;6.322;2023-03-03T07:19:16;11.55;;;8.43;;
53151;SDS011;39234;53.158;6.322;2023-03-03T07:21:43;10.18;;;8.05;;
53151;SDS011;39234;53.158;6.322;2023-03-03T07:24:24;11.48;;;8.07;;
53151;SDS011;39234;53.158;6.322;2023-03-03T07:26:52;11.77;;;8.50;;
53151;SDS011;39234;53.158;6.322;2023-03-03T07:29:35;12.60;;;7.20;;
53151;SDS011;39234;53.158;6.322;2023-03-03T07:32:05;10.73;;;7.88;;
53151;SDS011;39234;53.158;6.322;2023-03-03T07:34:48;11.23;;;6.95;;
53151;SDS011;39234;53.158;6.322;2023-03-03T07:37:26;10.18;;;7.15;;
53151;SDS011;39234;53.158;6.322;2023-03-03T07:39:56;11.23;;;7.72;;
53151;SDS011;39234;53.158;6.322;2023-03-03T07:42:43;14.52;;;7.18;;
53151;SDS011;39234;53.158;6.322;2023-03-03T07:45:21;10.23;;;7.07;;
53151;SDS011;39234;53.158;6.322;2023-03-03T07:47:51;9.85;;;6.80;;
53151;SDS011;39234;53.158;6.322;2023-03-03T07:50:28;10.90;;;7.30;;
53151;SDS011;39234;53.158;6.322;2023-03-03T07:52:58;10.35;;;6.75;;
53151;SDS011;39234;53.158;6.322;2023-03-03T07:55:34;10.73;;;7.68;;
53151;SDS011;39234;53.158;6.322;2023-03-03T07:58:13;12.85;;;7.47;;
53151;SDS011;39234;53.158;6.322;2023-03-03T08:03:36;10.82;;;7.07;;
53151;SDS011;39234;53.158;6.322;2023-03-03T08:08:47;13.40;;;8.27;;
53151;SDS011;39234;53.158;6.322;2023-03-03T08:11:13;14.20;;;9.70;;
53151;SDS011;39234;53.158;6.322;2023-03-03T08:13:40;11.43;;;8.38;;
53151;SDS011;39234;53.158;6.322;2023-03-03T08:18:39;12.57;;;9.35;;
53151;SDS011;39234;53.158;6.322;2023-03-03T08:23:39;25.15;;;14.18;;
53151;SDS011;39234;53.158;6.322;2023-03-03T08:26:05;27.25;;;16.10;;
53151;SDS011;39234;53.158;6.322;2023-03-03T08:28:32;19.13;;;11.48;;
53151;SDS011;39234;53.158;6.322;2023-03-03T08:30:58;15.13;;;10.50;;
53151;SDS011;39234;53.158;6.322;2023-03-03T08:33:24;14.68;;;10.57;;
53151;SDS011;39234;53.158;6.322;2023-03-03T08:35:50;17.13;;;10.25;;
53151;SDS011;39234;53.158;6.322;2023-03-03T08:38:17;20.02;;;9.95;;
53151;SDS011;39234;53.158;6.322;2023-03-03T08:40:45;16.73;;;10.23;;
53151;SDS011;39234;53.158;6.322;2023-03-03T08:43:12;18.75;;;11.40;;
53151;SDS011;39234;53.158;6.322;2023-03-03T08:45:49;19.88;;;11.68;;
53151;SDS011;39234;53.158;6.322;2023-03-03T08:48:15;21.27;;;11.98;;
53151;SDS011;39234;53.158;6.322;2023-03-03T08:50:42;17.40;;;11.35;;
53151;SDS011;39234;53.158;6.322;2023-03-03T08:53:08;19.17;;;11.38;;
53151;SDS011;39234;53.158;6.322;2023-03-03T08:55:35;23.70;;;12.82;;
53151;SDS011;39234;53.158;6.322;2023-03-03T08:58:01;22.48;;;11.00;;
53151;SDS011;39234;53.158;6.322;2023-03-03T09:00:27;17.13;;;11.27;;
53151;SDS011;39234;53.158;6.322;2023-03-03T09:02:54;17.88;;;11.80;;
53151;SDS011;39234;53.158;6.322;2023-03-03T09:05:20;22.75;;;12.50;;
53151;SDS011;39234;53.158;6.322;2023-03-03T09:07:46;21.38;;;13.00;;
53151;SDS011;39234;53.158;6.322;2023-03-03T09:10:14;20.98;;;13.77;;
53151;SDS011;39234;53.158;6.322;2023-03-03T09:12:43;22.40;;;13.18;;
53151;SDS011;39234;53.158;6.322;2023-03-03T09:17:40;21.50;;;13.45;;
53151;SDS011;39234;53.158;6.322;2023-03-03T09:20:16;23.08;;;13.52;;
53151;SDS011;39234;53.158;6.322;2023-03-03T09:25:50;23.40;;;13.75;;
53151;SDS011;39234;53.158;6.322;2023-03-03T09:28:24;19.73;;;12.55;;
53151;SDS011;39234;53.158;6.322;2023-03-03T09:30:52;22.88;;;13.15;;
53151;SDS011;39234;53.158;6.322;2023-03-03T09:33:23;17.50;;;11.73;;
53151;SDS011;39234;53.158;6.322;2023-03-03T09:35:49;19.63;;;11.57;;
53151;SDS011;39234;53.158;6.322;2023-03-03T09:38:23;29.25;;;14.10;;
53151;SDS011;39234;53.158;6.322;2023-03-03T09:41:00;15.93;;;9.93;;
53151;SDS011;39234;53.158;6.322;2023-03-03T09:43:35;18.50;;;9.40;;
53151;SDS011;39234;53.158;6.322;2023-03-03T10:00:41;12.95;;;6.60;;
53151;SDS011;39234;53.158;6.322;2023-03-03T10:03:38;12.45;;;5.28;;
53151;SDS011;39234;53.158;6.322;2023-03-03T10:09:07;7.22;;;2.92;;
53151;SDS011;39234;53.158;6.322;2023-03-03T10:14:57;4.50;;;1.95;;
53151;SDS011;39234;53.158;6.322;2023-03-03T10:17:33;9.77;;;2.20;;
53151;SDS011;39234;53.158;6.322;2023-03-03T10:22:52;3.05;;;0.73;;
53151;SDS011;39234;53.158;6.322;2023-03-03T10:25:25;13.15;;;1.52;;
53151;SDS011;39234;53.158;6.322;2023-03-03T10:38:42;9.77;;;1.48;;
53151;SDS011;39234;53.158;6.322;2023-03-03T10:49:26;8.15;;;1.65;;
53151;SDS011;39234;53.158;6.322;2023-03-03T10:52:40;6.68;;;1.17;;
53151;SDS011;39234;53.158;6.322;2023-03-03T11:00:44;10.07;;;1.60;;
53151;SDS011;39234;53.158;6.322;2023-03-03T11:06:37;4.63;;;0.80;;
53151;SDS011;39234;53.158;6.322;2023-03-03T11:14:46;4.28;;;0.70;;
53151;SDS011;39234;53.158;6.322;2023-03-03T11:17:42;5.32;;;1.13;;
53151;SDS011;39234;53.158;6.322;2023-03-03T11:20:35;9.30;;;2.40;;
53151;SDS011;39234;53.158;6.322;2023-03-03T11:23:20;5.70;;;1.00;;
53151;SDS011;39234;53.158;6.322;2023-03-03T11:31:36;6.68;;;0.98;;
53151;SDS011;39234;53.158;6.322;2023-03-03T11:39:49;7.25;;;1.10;;
53151;SDS011;39234;53.158;6.322;2023-03-03T11:42:26;4.95;;;0.88;;
53151;SDS011;39234;53.158;6.322;2023-03-03T11:45:19;5.60;;;0.90;;
53151;SDS011;39234;53.158;6.322;2023-03-03T11:55:55;3.50;;;0.80;;
53151;SDS011;39234;53.158;6.322;2023-03-03T12:04:19;5.05;;;1.25;;
53151;SDS011;39234;53.158;6.322;2023-03-03T12:11:47;9.73;;;1.35;;
53151;SDS011;39234;53.158;6.322;2023-03-03T12:14:25;7.00;;;0.90;;
53151;SDS011;39234;53.158;6.322;2023-03-03T12:22:59;10.27;;;1.60;;
53151;SDS011;39234;53.158;6.322;2023-03-03T12:28:05;12.10;;;1.33;;
53151;SDS011;39234;53.158;6.322;2023-03-03T12:33:46;6.72;;;1.40;;
53151;SDS011;39234;53.158;6.322;2023-03-03T12:44:21;10.70;;;1.25;;
53151;SDS011;39234;53.158;6.322;2023-03-03T12:47:03;8.18;;;1.17;;
53151;SDS011;39234;53.158;6.322;2023-03-03T12:49:57;9.27;;;1.20;;
53151;SDS011;39234;53.158;6.322;2023-03-03T12:52:32;21.60;;;2.90;;
53151;SDS011;39234;53.158;6.322;2023-03-03T12:58:10;13.30;;;2.30;;
53151;SDS011;39234;53.158;6.322;2023-03-03T13:06:06;13.10;;;2.25;;
53151;SDS011;39234;53.158;6.322;2023-03-03T13:17:26;11.13;;;2.08;;
53151;SDS011;39234;53.158;6.322;2023-03-03T13:19:59;10.38;;;1.80;;
53151;SDS011;39234;53.158;6.322;2023-03-03T13:22:43;12.27;;;1.98;;
53151;SDS011;39234;53.158;6.322;2023-03-03T13:25:29;10.77;;;2.03;;
53151;SDS011;39234;53.158;6.322;2023-03-03T13:27:59;10.95;;;1.80;;
53151;SDS011;39234;53.158;6.322;2023-03-03T13:30:38;8.52;;;1.90;;
53151;SDS011;39234;53.158;6.322;2023-03-03T13:33:27;19.20;;;2.53;;
53151;SDS011;39234;53.158;6.322;2023-03-03T13:35:56;16.50;;;2.17;;
53151;SDS011;39234;53.158;6.322;2023-03-03T13:41:22;20.00;;;2.92;;
53151;SDS011;39234;53.158;6.322;2023-03-03T13:44:04;15.43;;;2.83;;
53151;SDS011;39234;53.158;6.322;2023-03-03T14:07:57;15.63;;;2.90;;
53151;SDS011;39234;53.158;6.322;2023-03-03T14:10:29;15.77;;;2.72;;
53151;SDS011;39234;53.158;6.322;2023-03-03T14:13:08;13.68;;;2.95;;
53151;SDS011;39234;53.158;6.322;2023-03-03T14:15:54;20.55;;;4.28;;
53151;SDS011;39234;53.158;6.322;2023-03-03T14:18:28;19.45;;;2.97;;
53151;SDS011;39234;53.158;6.322;2023-03-03T14:21:06;16.00;;;2.60;;
53151;SDS011;39234;53.158;6.322;2023-03-03T14:26:19;21.27;;;3.03;;
53151;SDS011;39234;53.158;6.322;2023-03-03T14:28:46;18.40;;;3.65;;
53151;SDS011;39234;53.158;6.322;2023-03-03T14:31:19;19.98;;;3.08;;
53151;SDS011;39234;53.158;6.322;2023-03-03T14:36:40;18.63;;;2.80;;
53151;SDS011;39234;53.158;6.322;2023-03-03T14:41:57;17.23;;;2.70;;
53151;SDS011;39234;53.158;6.322;2023-03-03T14:44:24;15.80;;;2.40;;
53151;SDS011;39234;53.158;6.322;2023-03-03T14:49:49;15.60;;;2.70;;
53151;SDS011;39234;53.158;6.322;2023-03-03T14:54:46;22.55;;;3.00;;
53151;SDS011;39234;53.158;6.322;2023-03-03T14:57:15;19.90;;;3.05;;
53151;SDS011;39234;53.158;6.322;2023-03-03T14:59:58;20.55;;;2.60;;
53151;SDS011;39234;53.158;6.322;2023-03-03T15:02:29;17.15;;;3.42;;
53151;SDS011;39234;53.158;6.322;2023-03-03T15:05:44;27.17;;;3.85;;
53151;SDS011;39234;53.158;6.322;2023-03-03T15:07:55;19.55;;;2.95;;
53151;SDS011;39234;53.158;6.322;2023-03-03T15:10:25;22.88;;;3.33;;
53151;SDS011;39234;53.158;6.322;2023-03-03T15:13:35;18.90;;;2.30;;
53151;SDS011;39234;53.158;6.322;2023-03-03T15:18:23;19.20;;;3.03;;
53151;SDS011;39234;53.158;6.322;2023-03-03T15:21:01;19.10;;;2.95;;
53151;SDS011;39234;53.158;6.322;2023-03-03T15:26:11;18.30;;;2.88;;
53151;SDS011;39234;53.158;6.322;2023-03-03T15:28:50;19.40;;;3.13;;
53151;SDS011;39234;53.158;6.322;2023-03-03T15:34:15;18.95;;;3.20;;
53151;SDS011;39234;53.158;6.322;2023-03-03T15:37:06;22.95;;;3.53;;
53151;SDS011;39234;53.158;6.322;2023-03-03T15:39:48;19.83;;;3.95;;
53151;SDS011;39234;53.158;6.322;2023-03-03T15:42:30;25.05;;;3.28;;
53151;SDS011;39234;53.158;6.322;2023-03-03T15:45:06;23.73;;;3.42;;
53151;SDS011;39234;53.158;6.322;2023-03-03T15:50:42;14.88;;;2.40;;
53151;SDS011;39234;53.158;6.322;2023-03-03T15:55:51;19.83;;;3.28;;
53151;SDS011;39234;53.158;6.322;2023-03-03T16:01:33;17.05;;;2.78;;
53151;SDS011;39234;53.158;6.322;2023-03-03T16:04:03;18.17;;;3.15;;
53151;SDS011;39234;53.158;6.322;2023-03-03T16:23:16;20.02;;;3.72;;
53151;SDS011;39234;53.158;6.322;2023-03-03T16:28:48;23.75;;;3.90;;
53151;SDS011;39234;53.158;6.322;2023-03-03T16:31:21;18.02;;;2.97;;
53151;SDS011;39234;53.158;6.322;2023-03-03T16:36:51;22.85;;;3.28;;
53151;SDS011;39234;53.158;6.322;2023-03-03T16:39:40;29.13;;;3.63;;
53151;SDS011;39234;53.158;6.322;2023-03-03T16:47:29;21.42;;;3.28;;
53151;SDS011;39234;53.158;6.322;2023-03-03T16:55:50;19.50;;;3.03;;
53151;SDS011;39234;53.158;6.322;2023-03-03T17:09:22;19.48;;;3.25;;
53151;SDS011;39234;53.158;6.322;2023-03-03T17:26:34;25.77;;;4.75;;
53151;SDS011;39234;53.158;6.322;2023-03-03T17:37:48;28.42;;;4.15;;
53151;SDS011;39234;53.158;6.322;2023-03-03T17:40:33;32.95;;;4.45;;
53151;SDS011;39234;53.158;6.322;2023-03-03T17:43:28;26.27;;;4.22;;
53151;SDS011;39234;53.158;6.322;2023-03-03T17:45:58;29.48;;;4.90;;
53151;SDS011;39234;53.158;6.322;2023-03-03T17:54:28;26.75;;;4.30;;
53151;SDS011;39234;53.158;6.322;2023-03-03T18:08:17;27.15;;;4.07;;
53151;SDS011;39234;53.158;6.322;2023-03-03T18:16:20;25.65;;;4.05;;
53151;SDS011;39234;53.158;6.322;2023-03-03T18:19:00;19.60;;;3.55;;
53151;SDS011;39234;53.158;6.322;2023-03-03T18:30:50;23.38;;;4.20;;
53151;SDS011;39234;53.158;6.322;2023-03-03T19:04:52;22.55;;;5.10;;
53151;SDS011;39234;53.158;6.322;2023-03-03T19:15:09;24.83;;;4.18;;
53151;SDS011;39234;53.158;6.322;2023-03-03T19:18:01;23.02;;;3.55;;
53151;SDS011;39234;53.158;6.322;2023-03-03T19:20:43;20.13;;;3.05;;
53151;SDS011;39234;53.158;6.322;2023-03-03T19:36:58;24.67;;;3.50;;
53151;SDS011;39234;53.158;6.322;2023-03-03T19:42:10;16.73;;;3.08;;
53151;SDS011;39234;53.158;6.322;2023-03-03T19:45:22;21.25;;;3.50;;
53151;SDS011;39234;53.158;6.322;2023-03-03T19:47:47;20.65;;;4.38;;
53151;SDS011;39234;53.158;6.322;2023-03-03T19:57:07;24.38;;;5.00;;
53151;SDS011;39234;53.158;6.322;2023-03-03T19:59:18;22.95;;;3.40;;
53151;SDS011;39234;53.158;6.322;2023-03-03T20:13:44;32.33;;;8.15;;
53151;SDS011;39234;53.158;6.322;2023-03-03T20:16:20;23.95;;;5.45;;
53151;SDS011;39234;53.158;6.322;2023-03-03T20:32:34;25.52;;;3.58;;
53151;SDS011;39234;53.158;6.322;2023-03-03T20:37:49;22.83;;;3.58;;
53151;SDS011;39234;53.158;6.322;2023-03-03T20:51:06;19.90;;;4.05;;
53151;SDS011;39234;53.158;6.322;2023-03-03T20:56:35;23.90;;;5.07;;
53151;SDS011;39234;53.158;6.322;2023-03-03T20:59:28;19.13;;;4.07;;
53151;SDS011;39234;53.158;6.322;2023-03-03T21:02:42;25.00;;;3.80;;
53151;SDS011;39234;53.158;6.322;2023-03-03T21:04:42;23.10;;;3.47;;
53151;SDS011;39234;53.158;6.322;2023-03-03T21:07:08;16.75;;;3.13;;
53151;SDS011;39234;53.158;6.322;2023-03-03T21:09:48;20.23;;;3.00;;
53151;SDS011;39234;53.158;6.322;2023-03-03T21:12:27;19.13;;;3.50;;
53151;SDS011;39234;53.158;6.322;2023-03-03T21:15:02;17.95;;;3.63;;
53151;SDS011;39234;53.158;6.322;2023-03-03T21:17:31;17.05;;;2.92;;
53151;SDS011;39234;53.158;6.322;2023-03-03T21:22:43;24.20;;;5.68;;
53151;SDS011;39234;53.158;6.322;2023-03-03T21:25:11;18.45;;;3.95;;
53151;SDS011;39234;53.158;6.322;2023-03-03T21:30:57;18.73;;;2.85;;
53151;SDS011;39234;53.158;6.322;2023-03-03T21:33:37;19.52;;;3.35;;
53151;SDS011;39234;53.158;6.322;2023-03-03T21:36:03;19.75;;;3.63;;
53151;SDS011;39234;53.158;6.322;2023-03-03T21:38:34;16.55;;;2.13;;
53151;SDS011;39234;53.158;6.322;2023-03-03T21:41:01;21.40;;;3.03;;
53151;SDS011;39234;53.158;6.322;2023-03-03T21:43:31;16.85;;;3.03;;
53151;SDS011;39234;53.158;6.322;2023-03-03T21:46:01;18.48;;;3.30;;
53151;SDS011;39234;53.158;6.322;2023-03-03T21:48:28;18.85;;;2.72;;
53151;SDS011;39234;53.158;6.322;2023-03-03T21:50:54;17.38;;;3.40;;
53151;SDS011;39234;53.158;6.322;2023-03-03T21:53:21;10.05;;;1.95;;
53151;SDS011;39234;53.158;6.322;2023-03-03T21:55:51;15.93;;;2.50;;
53151;SDS011;39234;53.158;6.322;2023-03-03T21:58:18;20.67;;;2.50;;
53151;SDS011;39234;53.158;6.322;2023-03-03T22:00:44;16.63;;;2.90;;